Time;durP1;ratioP1;P1;durP2;ratioP2;P2;SDS_P1;SDS_P2;PMS_P1;PMS_P2;Temp;Humidity;BMP_temperature;BMP_pressure;BME280_temperature;BME280_humidity;BME280_pressure;Samples;Min_cycle;Max_cycle;Signal;HPM_P1;HPM_P2
2022/02/04 00:04:31;;;;;;;61.02;28.75;;;;;;;0.38;90.96;100046.14;1683275;85;25410;-71
2022/02/04 00:09:25;;;;;;;59.67;27.57;;;;;;;0.41;90.92;100036.34;1683447;85;25668;-71
2022/02/04 00:20:18;;;;;;;60.98;26.15;;;;;;;0.48;90.79;100036.16;1600697;89;27441;-70
2022/02/04 00:25:06;;;;;;;60.28;28.77;;;;;;;0.52;90.78;100046.56;1600616;89;25750;-70
2022/02/04 00:27:29;;;;;;;64.07;26.97;;;;;;;0.53;90.79;100045.53;1600601;89;26011;-70
2022/02/04 00:30:08;;;;;;;60.55;26.70;;;;;;;0.54;90.77;100043.13;1600702;89;25488;-70
2022/02/04 00:32:30;;;;;;;57.17;27.50;;;;;;;0.55;90.71;100050.86;1600559;88;27385;-70
2022/02/04 00:35:09;;;;;;;56.58;26.55;;;;;;;0.56;90.62;100041.02;1600537;89;26320;-70
2022/02/04 00:37:57;;;;;;;57.27;26.27;;;;;;;0.60;90.59;100041.34;1600694;89;25301;-70
2022/02/04 00:40:22;;;;;;;64.50;28.30;;;;;;;0.60;90.56;100043.48;1599126;88;25512;-71
2022/02/04 00:42:52;;;;;;;57.93;26.97;;;;;;;0.60;90.42;100035.48;1600847;89;25292;-68
2022/02/04 00:45:25;;;;;;;58.83;27.42;;;;;;;0.60;90.47;100029.37;1600861;89;27727;-69
2022/02/04 00:48:02;;;;;;;60.15;27.50;;;;;;;0.62;90.49;100030.72;1601449;89;25712;-70
2022/02/04 00:50:35;;;;;;;60.20;27.90;;;;;;;0.63;90.50;100033.67;1527797;93;25594;-70
2022/02/04 00:53:10;;;;;;;64.72;28.70;;;;;;;0.67;90.56;100035.30;1527340;92;25585;-70
2022/02/04 00:55:38;;;;;;;56.92;26.90;;;;;;;0.68;90.46;100028.91;1549522;89;26294;-69
2022/02/04 01:27:53;;;;;;;56.80;25.75;;;;;;;0.66;90.85;99984.43;1525266;94;25510;-71
2022/02/04 01:30:26;;;;;;;56.68;25.62;;;;;;;0.64;90.93;99987.34;1525333;94;25754;-70
2022/02/04 01:32:48;;;;;;;65.85;29.42;;;;;;;0.66;91.04;99984.43;1524687;92;25884;-70
2022/02/04 01:35:14;;;;;;;55.30;26.93;;;;;;;0.67;91.10;99986.84;1525415;94;25647;-72
2022/02/04 01:37:40;;;;;;;63.28;28.83;;;;;;;0.65;91.22;99979.64;1525394;94;27397;-69
2022/02/04 01:40:08;;;;;;;61.60;26.60;;;;;;;0.66;91.22;99970.59;1543902;89;25639;-70
2022/02/04 01:42:34;;;;;;;60.73;26.33;;;;;;;0.66;91.33;99973.25;1599211;89;25765;-70
2022/02/04 01:45:01;;;;;;;57.05;27.10;;;;;;;0.68;91.44;99974.33;1598131;89;25727;-70
2022/02/04 01:47:27;;;;;;;58.23;26.33;;;;;;;0.68;91.49;99976.48;1599263;89;25641;-71
2022/02/04 01:49:53;;;;;;;54.98;27.85;;;;;;;0.69;91.53;99973.28;1599254;89;27394;-71
2022/02/04 01:52:20;;;;;;;64.35;27.37;;;;;;;0.68;91.59;99968.50;1599138;89;25697;-70
2022/02/04 01:54:46;;;;;;;59.95;27.27;;;;;;;0.70;91.79;99965.05;1655010;85;25407;-71
2022/02/04 01:57:12;;;;;;;56.88;27.40;;;;;;;0.69;91.75;99961.31;1681060;85;26303;-70
2022/02/04 01:59:38;;;;;;;61.35;28.35;;;;;;;0.68;91.84;99953.86;1672640;85;25454;-70
2022/02/04 02:02:04;;;;;;;63.48;26.85;;;;;;;0.68;91.96;99952.53;1672571;85;27294;-71
2022/02/04 02:04:30;;;;;;;58.30;28.52;;;;;;;0.70;92.00;99952.28;1652781;85;25587;-71
2022/02/04 02:06:59;;;;;;;61.73;26.60;;;;;;;0.68;92.00;99957.85;1672609;85;25427;-71
2022/02/04 02:09:43;;;;;;;58.23;28.17;;;;;;;0.68;92.03;99957.03;1672673;85;25836;-71
2022/02/04 02:11:59;;;;;;;58.73;27.32;;;;;;;0.67;92.18;99957.56;1669968;84;25494;-71
2022/02/04 02:14:27;;;;;;;55.98;26.25;;;;;;;0.66;92.18;99950.63;1672372;84;27348;-71
2022/02/04 02:33:05;;;;;;;58.23;27.37;;;;;;;0.67;92.29;99944.79;1676594;84;25644;-71
2022/02/04 02:36:37;;;;;;;54.70;26.50;;;;;;;0.65;92.97;99935.72;1596654;89;26162;-70
2022/02/04 02:51:40;;;;;;;59.33;26.37;;;;;;;0.64;93.57;99939.96;1596806;89;25517;-71
2022/02/04 02:59:11;;;;;;;53.20;27.75;;;;;;;0.62;93.88;99939.42;1601175;89;25477;-71
2022/02/04 03:01:35;;;;;;;59.88;26.82;;;;;;;0.62;93.97;99934.89;1601505;88;25624;-71
2022/02/04 03:04:07;;;;;;;60.80;27.70;;;;;;;0.63;94.04;99932.52;1601901;89;25714;-71
2022/02/04 03:06:31;;;;;;;63.30;27.95;;;;;;;0.64;94.14;99935.44;1601375;88;27381;-71
2022/02/04 03:08:57;;;;;;;52.98;25.52;;;;;;;0.63;94.28;99928.52;1601811;88;25941;-71
2022/02/04 03:11:23;;;;;;;55.30;26.77;;;;;;;0.66;94.36;99927.20;1601879;89;25589;-71
2022/02/04 03:13:49;;;;;;;51.98;26.25;;;;;;;0.66;94.40;99927.99;1660350;85;26385;-71
2022/02/04 03:16:18;;;;;;;58.38;27.20;;;;;;;0.67;94.42;99923.49;1682620;85;32331;-71
2022/02/04 03:18:48;;;;;;;53.45;26.85;;;;;;;0.68;94.53;99932.56;1682498;85;28050;-71
2022/02/04 03:21:16;;;;;;;56.33;26.23;;;;;;;0.68;94.62;99927.23;1682328;85;25663;-70
2022/02/04 03:23:48;;;;;;;55.60;27.15;;;;;;;0.70;94.88;99926.45;1682397;85;25570;-70
2022/02/04 03:26:29;;;;;;;57.03;26.05;;;;;;;0.70;94.78;99929.65;1681989;85;25688;-71
2022/02/04 03:28:47;;;;;;;56.23;26.50;;;;;;;0.72;94.89;99927.53;1681114;85;25593;-71
2022/02/04 03:31:14;;;;;;;56.45;26.93;;;;;;;0.74;94.99;99924.09;1682695;85;28088;-71
2022/02/04 03:33:42;;;;;;;56.98;26.10;;;;;;;0.75;95.06;99921.71;1682547;85;25736;-71
2022/02/04 03:36:08;;;;;;;54.90;25.72;;;;;;;0.76;94.99;99923.30;1682682;85;25679;-71
2022/02/04 03:38:34;;;;;;;51.65;26.85;;;;;;;0.78;95.16;99923.05;1682560;85;26271;-71
2022/02/04 03:41:01;;;;;;;56.68;26.02;;;;;;;0.79;95.21;99918.80;1682592;85;25169;-71
2022/02/04 03:43:27;;;;;;;52.15;25.45;;;;;;;0.79;95.18;99913.48;1682586;85;27314;-71
2022/02/04 03:45:53;;;;;;;51.53;26.73;;;;;;;0.81;95.21;99922.55;1682499;85;25487;-71
2022/02/04 03:48:19;;;;;;;54.90;26.20;;;;;;;0.81;95.25;99915.35;1682585;85;25621;-71
2022/02/04 03:50:45;;;;;;;58.02;26.82;;;;;;;0.82;95.29;99921.47;1682548;85;25667;-71
2022/02/04 03:53:16;;;;;;;53.60;26.60;;;;;;;0.84;95.32;99922.05;1682572;85;25511;-71
2022/02/04 03:55:43;;;;;;;55.58;25.70;;;;;;;0.86;95.38;99914.60;1682596;85;28065;-71
2022/02/04 03:58:11;;;;;;;59.45;25.90;;;;;;;0.86;95.41;99907.95;1682849;85;25665;-71
2022/02/04 04:00:39;;;;;;;57.08;27.30;;;;;;;0.86;95.53;99911.94;1683804;85;25687;-71
2022/02/04 04:03:06;;;;;;;54.20;25.20;;;;;;;0.85;95.58;99917.80;1683733;85;25672;-71
2022/02/04 04:05:36;;;;;;;51.10;27.13;;;;;;;0.86;95.71;99907.41;1683835;85;25509;-71
2022/02/04 04:08:00;;;;;;;53.45;25.90;;;;;;;0.87;95.74;99911.69;1683459;84;27504;-71
2022/02/04 04:10:28;;;;;;;55.53;25.23;;;;;;;0.88;95.79;99904.50;1683714;85;31343;-71
2022/02/04 04:12:58;;;;;;;53.73;25.55;;;;;;;0.90;95.85;99899.71;1683812;85;25436;-71
2022/02/04 04:15:23;;;;;;;53.48;27.15;;;;;;;0.87;96.01;99894.37;1683484;85;26289;-71
2022/02/04 04:17:50;;;;;;;52.78;24.60;;;;;;;0.89;96.05;99893.59;1683971;85;25419;-71
2022/02/04 04:20:22;;;;;;;52.75;25.57;;;;;;;0.89;96.06;99887.47;1683944;85;27357;-71
2022/02/04 04:22:51;;;;;;;58.15;27.75;;;;;;;0.89;96.15;99894.92;1683860;85;25492;-70
2022/02/04 04:25:17;;;;;;;48.17;26.12;;;;;;;0.91;96.41;99888.02;1683946;85;25629;-71
2022/02/04 04:27:45;;;;;;;48.65;25.15;;;;;;;0.90;96.28;99891.72;1683900;85;25817;-71
2022/02/04 04:30:16;;;;;;;54.58;25.62;;;;;;;0.91;96.33;99888.02;1683955;85;25589;-71
2022/02/04 04:32:44;;;;;;;52.85;26.07;;;;;;;0.93;96.38;99891.22;1683556;85;28103;-71
2022/02/04 04:35:15;;;;;;;58.38;26.17;;;;;;;0.94;96.48;99890.17;1683835;85;25594;-71
2022/02/04 05:26:48;;;;;;;48.65;23.83;;;;;;;1.06;97.32;99862.82;1683921;85;27396;-71
2022/02/04 05:29:04;;;;;;;51.65;24.40;;;;;;;1.08;97.49;99866.03;1679984;85;25612;-71
2022/02/04 05:31:25;;;;;;;58.02;26.10;;;;;;;1.08;97.50;99863.91;1682809;85;25474;-71
2022/02/04 05:33:51;;;;;;;54.42;25.23;;;;;;;1.09;97.52;99866.31;1683854;85;25653;-70
2022/02/04 05:36:18;;;;;;;53.63;25.85;;;;;;;1.09;97.44;99868.16;1683921;85;25663;-70
2022/02/04 05:38:45;;;;;;;52.60;25.43;;;;;;;1.10;97.47;99871.10;1683837;85;27412;-70
2022/02/04 05:41:17;;;;;;;52.85;25.97;;;;;;;1.10;97.54;99871.89;1683825;85;25586;-70
2022/02/04 05:43:42;;;;;;;49.10;24.25;;;;;;;1.11;97.71;99869.52;1683007;85;25586;-70
2022/02/04 05:46:15;;;;;;;53.15;26.12;;;;;;;1.11;97.70;99874.84;1683814;85;25625;-70
2022/02/04 05:48:38;;;;;;;57.48;26.85;;;;;;;1.11;97.70;99870.05;1681842;85;25661;-71
2022/02/04 05:51:24;;;;;;;54.25;26.90;;;;;;;1.13;97.76;99871.92;1683768;85;27425;-71
2022/02/04 05:53:46;;;;;;;57.67;25.75;;;;;;;1.14;97.82;99868.19;1680069;85;25882;-71
2022/02/04 06:01:36;;;;;;;58.63;26.30;;;;;;;1.17;97.88;99865.55;1684616;85;25445;-71
2022/02/04 06:04:08;;;;;;;50.48;27.48;;;;;;;1.19;97.88;99866.09;1683157;85;27428;-69
2022/02/04 06:12:12;;;;;;;55.23;27.07;;;;;;;1.19;97.92;99866.92;1684706;85;25853;-69
2022/02/04 06:14:46;;;;;;;56.98;26.45;;;;;;;1.22;97.99;99869.58;1681003;84;25478;-70
2022/02/04 06:22:28;;;;;;;58.80;26.93;;;;;;;1.24;98.23;99866.13;1684575;85;25672;-70
2022/02/04 06:24:56;;;;;;;51.80;24.82;;;;;;;1.25;98.10;99869.08;1684644;85;25628;-70
2022/02/04 06:27:26;;;;;;;60.63;26.17;;;;;;;1.25;98.19;99877.86;1684620;85;25454;-71
2022/02/04 06:29:54;;;;;;;59.03;27.55;;;;;;;1.25;98.27;99877.86;1684594;85;27351;-71
2022/02/04 06:32:21;;;;;;;54.07;28.03;;;;;;;1.26;98.35;99881.31;1684709;85;25702;-71
2022/02/04 06:34:51;;;;;;;55.20;27.20;;;;;;;1.29;98.42;99883.48;1684709;85;25662;-72
2022/02/04 06:37:18;;;;;;;57.75;28.35;;;;;;;1.30;98.47;99886.42;1684620;85;25626;-71
2022/02/04 06:39:44;;;;;;;58.50;28.05;;;;;;;1.33;98.43;99882.42;1684634;85;25430;-72
2022/02/04 06:42:10;;;;;;;56.18;28.47;;;;;;;1.34;98.41;99887.50;1684562;85;28233;-71
2022/02/04 06:44:37;;;;;;;62.83;27.22;;;;;;;1.36;98.48;99877.38;1684489;85;25587;-71
2022/02/04 06:47:04;;;;;;;57.35;26.48;;;;;;;1.37;98.37;99875.54;1660624;85;25509;-71
2022/02/04 06:49:31;;;;;;;56.80;27.60;;;;;;;1.39;98.40;99882.20;1684552;85;25867;-71
2022/02/04 06:51:57;;;;;;;61.15;27.37;;;;;;;1.41;98.39;99876.62;1684623;85;25603;-71
2022/02/04 06:54:23;;;;;;;54.98;25.70;;;;;;;1.42;98.51;99883.56;1684571;85;27180;-71
2022/02/04 06:56:49;;;;;;;59.40;26.73;;;;;;;1.45;98.50;99882.52;1684489;85;30394;-71
2022/02/04 06:59:16;;;;;;;57.25;28.38;;;;;;;1.45;98.59;99885.18;1684207;85;25706;-70
2022/02/04 07:01:43;;;;;;;51.70;24.85;;;;;;;1.46;98.48;99880.64;1683771;85;25601;-71
2022/02/04 07:04:12;;;;;;;57.10;26.37;;;;;;;1.47;98.58;99885.72;1683823;85;25666;-74
2022/02/04 07:06:41;;;;;;;57.40;26.97;;;;;;;1.48;98.61;99888.67;1684005;85;27401;-72
2022/02/04 07:19:48;;;;;;;55.23;25.77;;;;;;;1.49;98.89;99876.93;1683824;85;27399;-71
2022/02/04 07:22:17;;;;;;;60.33;26.65;;;;;;;1.49;98.91;99874.27;1683693;85;25443;-71
2022/02/04 07:24:50;;;;;;;54.00;26.68;;;;;;;1.50;98.99;99872.42;1683986;85;25680;-71
2022/02/04 07:27:18;;;;;;;58.95;26.00;;;;;;;1.52;99.32;99873.50;1683784;85;25609;-71
2022/02/04 07:29:47;;;;;;;61.65;27.48;;;;;;;1.54;99.29;99872.70;1683790;85;25511;-71
2022/02/04 07:32:19;;;;;;;60.30;29.05;;;;;;;1.54;99.40;99866.83;1683850;85;27543;-70
2022/02/04 07:35:15;;;;;;;55.52;27.48;;;;;;;1.55;99.35;99864.45;1682723;85;25734;-71
2022/02/04 07:42:39;;;;;;;58.75;25.95;;;;;;;1.65;99.79;99877.00;1683782;85;25614;-71
2022/02/04 07:45:06;;;;;;;56.73;26.68;;;;;;;1.68;99.77;99869.28;1683714;85;27358;-71
2022/02/04 07:47:33;;;;;;;52.17;25.32;;;;;;;1.70;99.76;99862.36;1683696;85;25427;-70
2022/02/04 07:49:59;;;;;;;57.00;27.02;;;;;;;1.74;99.79;99867.46;1683835;85;25645;-70
2022/02/04 07:52:25;;;;;;;57.78;25.60;;;;;;;1.78;99.83;99869.08;1683697;85;26345;-73
2022/02/04 07:54:52;;;;;;;53.15;24.90;;;;;;;1.80;99.78;99873.07;1683968;85;25597;-70
2022/02/04 07:57:18;;;;;;;57.13;25.45;;;;;;;1.84;99.84;99875.50;1683949;85;27330;-71
2022/02/04 07:59:46;;;;;;;50.20;25.15;;;;;;;1.88;99.72;99874.98;1684148;85;25857;-70
2022/02/04 08:02:14;;;;;;;58.68;26.55;;;;;;;1.89;99.67;99870.73;1684588;85;25641;-69
2022/02/04 08:04:42;;;;;;;55.92;26.85;;;;;;;1.91;99.72;99867.27;1684658;85;26277;-71
2022/02/04 08:07:13;;;;;;;61.55;24.87;;;;;;;1.92;99.62;99867.52;1682231;83;25981;-72
2022/02/04 08:09:53;;;;;;;57.03;24.72;;;;;;;1.96;99.73;99869.95;1684079;83;27340;-71
2022/02/04 09:18:34;;;;;;;53.73;24.50;;;;;;;2.46;100.00;99866.86;1722832;83;26530;-71
2022/02/04 09:21:10;;;;;;;47.75;23.25;;;;;;;2.50;100.00;99864.70;1713349;83;25894;-73
2022/02/04 09:23:12;;;;;;;51.65;23.75;;;;;;;2.54;100.00;99866.34;1718185;83;25786;-74
2022/02/04 09:25:40;;;;;;;52.17;25.77;;;;;;;2.57;100.00;99865.78;1692375;83;25638;-72
2022/02/04 09:28:07;;;;;;;55.73;25.52;;;;;;;2.60;100.00;99867.39;1722592;83;25728;-72
2022/02/04 09:30:34;;;;;;;56.50;26.20;;;;;;;2.66;100.00;99863.41;1722971;81;27562;-73
2022/02/04 09:33:00;;;;;;;55.28;26.40;;;;;;;2.68;100.00;99866.06;1717740;83;25304;-71
2022/02/04 09:35:27;;;;;;;52.25;25.00;;;;;;;2.71;100.00;99858.86;1717469;83;25651;-71
2022/02/04 09:37:55;;;;;;;54.00;25.80;;;;;;;2.74;100.00;99858.84;1723107;83;25676;-71
2022/02/04 09:40:23;;;;;;;55.70;25.60;;;;;;;2.75;100.00;99855.13;1722596;83;25292;-71
2022/02/04 09:42:51;;;;;;;49.80;25.23;;;;;;;2.80;100.00;99847.90;1691911;83;27495;-72
2022/02/04 09:45:20;;;;;;;50.08;25.92;;;;;;;2.85;100.00;99850.32;1722475;82;25721;-72
2022/02/04 09:47:49;;;;;;;;;;;;;;;2.87;100.00;99844.95;1724816;83;25876;-72
2022/02/04 09:50:20;;;;;;;47.85;25.30;;;;;;;2.91;100.00;99839.88;1691366;83;25703;-73
2022/02/04 10:09:47;;;;;;;47.30;25.77;;;;;;;3.17;100.00;99823.28;1673487;84;27420;-72
2022/02/04 10:17:09;;;;;;;42.40;24.75;;;;;;;3.31;100.00;99826.19;1673733;85;26384;-71
2022/02/04 10:22:27;;;;;;;44.88;24.37;;;;;;;3.38;100.00;99816.00;1674118;85;27544;-72
2022/02/04 10:25:08;;;;;;;47.70;24.40;;;;;;;3.41;100.00;99811.45;1673670;85;25758;-73
2022/02/04 10:27:36;;;;;;;39.05;21.90;;;;;;;3.42;99.71;99812.24;1674342;85;25603;-72
2022/02/04 10:30:15;;;;;;;46.30;24.23;;;;;;;3.43;99.77;99808.51;1616599;88;25855;-71
2022/02/04 10:32:46;;;;;;;41.95;23.22;;;;;;;3.42;99.66;99810.36;1673967;85;25575;-72
2022/02/04 10:35:22;;;;;;;41.83;22.70;;;;;;;3.43;99.48;99818.66;1673136;85;27349;-73
2022/02/04 10:38:17;;;;;;;37.05;21.07;;;;;;;3.39;99.14;99810.11;1673586;85;25659;-72
2022/02/04 10:44:01;;;;;;;40.40;22.70;;;;;;;3.36;99.27;99805.58;1581518;90;25803;-72
2022/02/04 10:46:38;;;;;;;40.55;23.70;;;;;;;3.35;99.31;99810.67;1619352;85;25674;-71
2022/02/04 10:57:39;;;;;;;42.93;23.35;;;;;;;3.36;99.29;99805.58;1685541;85;25854;-72
2022/02/04 11:00:14;;;;;;;43.45;23.05;;;;;;;3.38;99.61;99801.30;1697719;84;25681;-72
2022/02/04 11:02:56;;;;;;;41.73;23.73;;;;;;;3.40;99.66;99791.12;1700531;84;27436;-71
2022/02/04 11:05:29;;;;;;;40.00;23.27;;;;;;;3.42;99.87;99786.30;1698428;84;34918;-72
2022/02/04 11:11:08;;;;;;;43.20;23.92;;;;;;;3.46;99.88;99783.91;1643619;87;25721;-72
2022/02/04 11:33:37;;;;;;;38.48;23.02;;;;;;;3.48;99.81;99785.76;1555751;89;25649;-72
2022/02/04 11:35:29;;;;;;;41.45;24.12;;;;;;;3.45;99.66;99781.74;1597801;89;25404;-72
2022/02/04 11:53:36;;;;;;;40.70;23.87;;;;;;;3.43;100.00;99771.08;1576772;90;26466;-72
2022/02/04 11:56:02;;;;;;;38.30;22.45;;;;;;;3.44;100.00;99771.31;1561788;89;25756;-71
2022/02/04 11:58:59;;;;;;;40.52;23.47;;;;;;;3.45;100.00;99762.23;1603727;89;27345;-71
2022/02/04 12:01:42;;;;;;;41.42;24.32;;;;;;;3.45;100.00;99761.69;1587520;89;25950;-72
2022/02/04 12:04:22;;;;;;;40.45;23.25;;;;;;;3.46;100.00;99766.52;1601966;88;26725;-71
2022/02/04 12:06:49;;;;;;;38.60;23.65;;;;;;;3.46;100.00;99767.31;1590425;89;25781;-71
2022/02/04 12:09:37;;;;;;;41.77;23.47;;;;;;;3.47;100.00;99762.21;1590435;89;25710;-71
2022/02/04 12:12:05;;;;;;;41.60;23.02;;;;;;;3.51;100.00;99761.15;1602314;89;27323;-71
2022/02/04 12:14:33;;;;;;;46.58;25.68;;;;;;;3.52;100.00;99759.54;1604883;89;26332;-72
2022/02/04 12:17:16;;;;;;;40.12;23.62;;;;;;;3.55;100.00;99757.63;1606670;87;25420;-72
2022/02/04 12:19:44;;;;;;;44.42;24.47;;;;;;;3.58;100.00;99746.94;1643737;86;26735;-72
2022/02/04 12:22:12;;;;;;;40.38;23.30;;;;;;;3.59;100.00;99755.20;1652049;86;25704;-71
2022/02/04 12:24:43;;;;;;;37.35;23.55;;;;;;;3.61;100.00;99750.41;1659237;86;27445;-73
2022/02/04 12:27:37;;;;;;;44.55;24.72;;;;;;;3.64;100.00;99741.02;1656246;86;26188;-71
2022/02/04 12:30:34;;;;;;;34.08;22.45;;;;;;;3.66;100.00;99746.36;1651069;86;26347;-71
2022/02/04 12:33:03;;;;;;;40.73;23.55;;;;;;;3.66;100.00;99743.69;1698364;83;26385;-71
2022/02/04 12:35:31;;;;;;;39.40;22.98;;;;;;;3.68;100.00;99739.41;1657643;85;25814;-72
2022/02/04 12:37:57;;;;;;;42.17;23.12;;;;;;;3.67;100.00;99739.92;1689209;84;28077;-71
2022/02/04 12:40:24;;;;;;;38.17;23.35;;;;;;;3.66;100.00;99741.02;1711074;83;25323;-72
2022/02/04 12:42:51;;;;;;;41.63;23.35;;;;;;;3.67;100.00;99742.59;1686180;84;25689;-72
2022/02/04 12:45:18;;;;;;;40.90;23.52;;;;;;;3.67;100.00;99741.80;1652056;86;25738;-72
2022/02/04 12:47:47;;;;;;;44.45;24.50;;;;;;;3.67;100.00;99741.80;1659048;84;26288;-70
2022/02/04 12:50:13;;;;;;;44.20;24.57;;;;;;;3.67;100.00;99740.47;1669927;84;27503;-69
2022/02/04 12:52:46;;;;;;;41.55;23.77;;;;;;;3.67;100.00;99738.58;1668293;85;25684;-70
2022/02/04 12:55:23;;;;;;;44.88;24.02;;;;;;;3.67;100.00;99732.44;1689235;82;25745;-69
2022/02/04 13:03:16;;;;;;;38.85;23.98;;;;;;;3.67;100.00;99732.44;1584359;90;27565;-73
2022/02/04 13:09:01;;;;;;;40.60;23.22;;;;;;;3.68;100.00;99716.66;1570772;89;25710;-73
2022/02/04 13:11:17;;;;;;;46.73;24.60;;;;;;;3.69;100.00;99716.36;1602838;88;25670;-73
2022/02/04 13:13:50;;;;;;;43.30;25.10;;;;;;;3.69;100.00;99719.59;1561806;89;25935;-74
2022/02/04 13:16:25;;;;;;;44.13;24.77;;;;;;;3.69;100.00;99724.94;1567484;89;27949;-73
2022/02/04 13:18:54;;;;;;;45.20;24.75;;;;;;;3.66;100.00;99710.25;1574803;89;25609;-72
2022/02/04 13:21:22;;;;;;;48.38;24.77;;;;;;;3.65;100.00;99708.64;1579221;90;25762;-74
2022/02/04 13:23:51;;;;;;;44.70;24.85;;;;;;;3.64;100.00;99712.37;1580849;90;25872;-73
2022/02/04 13:26:24;;;;;;;42.10;24.98;;;;;;;3.63;100.00;99714.81;1599873;89;25711;-72
2022/02/04 13:28:59;;;;;;;44.95;25.82;;;;;;;3.65;100.00;99709.19;1588119;89;27428;-73
2022/02/04 13:31:31;;;;;;;45.05;24.07;;;;;;;3.65;100.00;99704.63;1571831;89;25899;-72
2022/02/04 13:33:58;;;;;;;44.08;25.12;;;;;;;3.65;100.00;99700.62;1579782;89;25804;-73
2022/02/04 13:36:40;;;;;;;41.28;25.50;;;;;;;3.64;100.00;99696.34;1587251;86;25839;-73
2022/02/04 13:39:48;;;;;;;41.70;24.95;;;;;;;3.65;100.00;99695.81;1654624;84;25713;-75
2022/02/04 13:44:47;;;;;;;47.50;25.48;;;;;;;3.63;100.00;99698.77;1641580;86;25731;-73
2022/02/04 13:47:27;;;;;;;52.27;26.35;;;;;;;3.63;100.00;99693.41;1666230;85;25675;-72
2022/02/04 13:50:18;;;;;;;45.85;24.92;;;;;;;3.65;100.00;99699.28;1692864;83;25634;-73
2022/02/04 13:55:25;;;;;;;43.02;25.05;;;;;;;3.66;100.00;99700.07;1685753;84;27266;-72
2022/02/04 13:57:47;;;;;;;48.28;25.20;;;;;;;3.65;100.00;99694.48;1681614;83;25703;-75
2022/02/04 14:02:40;;;;;;;44.70;24.30;;;;;;;3.66;100.00;99697.40;1670617;85;25707;-73
2022/02/04 14:05:08;;;;;;;42.58;25.02;;;;;;;3.64;100.00;99688.31;1660407;86;25572;-74
2022/02/04 14:07:54;;;;;;;44.80;24.20;;;;;;;3.65;100.00;99687.25;1674584;85;27352;-74
2022/02/04 14:10:30;;;;;;;38.53;24.18;;;;;;;3.67;100.00;99685.63;1698231;84;25747;-74
2022/02/04 14:13:11;;;;;;;45.28;24.55;;;;;;;3.67;100.00;99689.09;1673677;85;25727;-73
2022/02/04 14:15:41;;;;;;;45.60;26.17;;;;;;;3.67;100.00;99685.09;1670121;84;25634;-73
2022/02/04 14:18:11;;;;;;;42.85;25.62;;;;;;;3.70;100.00;99686.42;1659637;86;25344;-76
2022/02/04 14:20:44;;;;;;;48.20;25.92;;;;;;;3.70;100.00;99681.86;1659613;86;28203;-75
2022/02/04 14:23:11;;;;;;;46.73;25.30;;;;;;;3.70;100.00;99682.41;1659243;86;25652;-73
2022/02/04 14:26:16;;;;;;;47.85;25.43;;;;;;;3.70;100.00;99679.73;1659423;86;25682;-73
2022/02/04 14:31:23;;;;;;;43.17;23.95;;;;;;;3.70;100.00;99673.84;1659564;86;25736;-73
2022/02/04 14:36:57;;;;;;;43.60;24.67;;;;;;;3.72;100.00;99676.23;1687148;85;25783;-74
2022/02/04 14:53:25;;;;;;;52.38;25.80;;;;;;;3.68;100.00;99676.00;1675135;85;25606;-73
2022/02/04 14:58:58;;;;;;;53.95;27.25;;;;;;;3.70;100.00;99670.38;1675500;85;25411;-72
2022/02/04 15:04:00;;;;;;;50.00;26.65;;;;;;;3.68;100.00;99672.53;1674259;85;25675;-70
2022/02/04 15:06:21;;;;;;;44.42;26.62;;;;;;;3.69;100.00;99666.09;1670964;85;25682;-69
2022/02/04 15:08:44;;;;;;;47.40;26.25;;;;;;;3.70;100.00;99677.06;1674051;84;26282;-69
2022/02/04 15:11:16;;;;;;;47.73;26.82;;;;;;;3.70;100.00;99667.15;1674621;85;25618;-70
2022/02/04 15:13:42;;;;;;;53.17;29.48;;;;;;;3.70;100.00;99671.16;1674291;85;27023;-72
2022/02/04 15:16:09;;;;;;;49.08;29.02;;;;;;;3.70;100.00;99674.39;1674463;85;25814;-70
2022/02/04 15:18:38;;;;;;;49.85;27.60;;;;;;;3.70;100.00;99673.84;1675636;84;25676;-70
2022/02/04 15:21:12;;;;;;;50.65;27.93;;;;;;;3.72;100.00;99669.55;1674127;85;25691;-70
2022/02/04 15:23:38;;;;;;;48.60;26.93;;;;;;;3.71;100.00;99667.42;1674046;85;25685;-69
2022/02/04 15:26:11;;;;;;;46.02;27.62;;;;;;;3.72;100.00;99677.03;1674287;85;27876;-69
2022/02/04 15:28:47;;;;;;;51.83;29.45;;;;;;;3.71;100.00;99671.95;1675007;85;25380;-71
2022/02/04 15:31:24;;;;;;;54.30;27.70;;;;;;;3.71;100.00;99666.09;1675199;85;25653;-70
2022/02/04 15:33:47;;;;;;;48.40;26.97;;;;;;;3.71;100.00;99666.09;1673368;85;26542;-71
2022/02/04 15:36:22;;;;;;;49.73;28.38;;;;;;;3.71;100.00;99666.09;1674998;85;25549;-70
2022/02/04 15:38:42;;;;;;;54.75;29.40;;;;;;;3.72;100.00;99661.53;1673793;85;27857;-71
2022/02/04 15:41:14;;;;;;;56.75;29.45;;;;;;;3.72;100.00;99664.98;1674817;83;25455;-72
2022/02/04 15:43:38;;;;;;;52.58;28.62;;;;;;;3.70;100.00;99657.79;1673881;85;25626;-71
2022/02/04 15:54:21;;;;;;;51.50;29.27;;;;;;;3.70;100.00;99658.34;1674939;84;25812;-72
2022/02/04 15:59:56;;;;;;;53.83;29.67;;;;;;;3.70;100.00;99658.34;1674544;85;26185;-72
2022/02/04 16:02:17;;;;;;;51.75;29.90;;;;;;;3.69;100.00;99658.06;1672051;85;25241;-71
2022/02/04 16:04:28;;;;;;;52.43;28.12;;;;;;;3.67;100.00;99650.31;1671268;85;27327;-72
2022/02/04 16:06:54;;;;;;;57.20;29.40;;;;;;;3.68;100.00;99652.47;1675283;85;25606;-72
2022/02/04 16:09:23;;;;;;;55.12;29.00;;;;;;;3.67;100.00;99655.66;1675078;85;25727;-72
2022/02/04 16:12:17;;;;;;;54.25;30.10;;;;;;;3.68;100.00;99656.48;1675351;85;25719;-73
2022/02/04 16:14:48;;;;;;;59.63;29.90;;;;;;;3.68;100.00;99651.14;1672837;85;25415;-71
2022/02/04 16:19:45;;;;;;;56.95;29.05;;;;;;;3.67;100.00;99647.64;1675230;85;25464;-72
2022/02/04 16:22:16;;;;;;;57.20;27.52;;;;;;;3.66;100.00;99642.05;1673815;85;25538;-72
2022/02/04 16:30:08;;;;;;;57.78;30.27;;;;;;;3.65;100.00;99632.41;1673110;85;27439;-72
2022/02/04 16:32:35;;;;;;;59.60;29.80;;;;;;;3.64;100.00;99629.47;1666622;85;25996;-71
2022/02/04 16:35:05;;;;;;;56.77;30.70;;;;;;;3.62;100.00;99634.30;1666935;85;25748;-72
2022/02/04 16:37:36;;;;;;;55.90;31.05;;;;;;;3.62;100.00;99628.16;1672803;84;26149;-71
2022/02/04 16:40:13;;;;;;;57.88;29.85;;;;;;;3.58;100.00;99627.92;1671165;84;25819;-72
2022/02/04 16:42:39;;;;;;;55.25;29.60;;;;;;;3.56;100.00;99620.73;1686898;84;26845;-72
2022/02/04 16:45:07;;;;;;;56.73;30.37;;;;;;;3.55;100.00;99617.23;1681761;84;25751;-72
2022/02/04 16:47:34;;;;;;;58.23;31.07;;;;;;;3.53;100.00;99622.07;1643301;84;25702;-72
2022/02/04 16:50:01;;;;;;;63.25;32.08;;;;;;;3.51;100.00;99618.09;1687115;84;25639;-73
2022/02/04 16:52:31;;;;;;;63.75;31.07;;;;;;;3.49;100.00;99619.70;1660582;85;25663;-72
2022/02/04 16:54:59;;;;;;;57.83;31.12;;;;;;;3.48;100.00;99620.77;1616462;87;28547;-72
2022/02/04 16:57:28;;;;;;;65.10;31.75;;;;;;;3.44;100.00;99614.39;1671395;85;25668;-70
2022/02/04 17:00:09;;;;;;;53.00;29.53;;;;;;;3.44;100.00;99618.40;1647803;85;25717;-71
2022/02/04 17:02:24;;;;;;;62.23;30.55;;;;;;;3.41;100.00;99612.81;1667303;85;26211;-71
2022/02/04 17:04:51;;;;;;;59.60;30.43;;;;;;;3.38;100.00;99608.02;1656086;85;25599;-71
2022/02/04 17:07:25;;;;;;;57.13;30.77;;;;;;;3.35;100.00;99612.03;1663390;85;27342;-72
2022/02/04 17:09:52;;;;;;;55.73;30.23;;;;;;;3.31;100.00;99605.65;1667857;85;25671;-70
2022/02/04 17:12:30;;;;;;;63.70;31.33;;;;;;;3.30;99.95;99607.53;1651985;85;25613;-71
2022/02/04 17:14:57;;;;;;;60.10;32.05;;;;;;;3.26;99.85;99612.36;1671104;85;25716;-71
2022/02/04 17:17:24;;;;;;;65.25;32.80;;;;;;;3.23;99.84;99613.70;1671881;85;25799;-71
2022/02/04 17:20:12;;;;;;;71.87;35.50;;;;;;;3.20;99.92;99616.92;1647808;85;27488;-71
2022/02/04 17:22:38;;;;;;;71.75;35.17;;;;;;;3.16;99.87;99616.67;1670628;85;25686;-71
2022/02/04 17:25:11;;;;;;;69.30;35.83;;;;;;;3.14;99.93;99611.36;1653305;85;25791;-70
2022/02/04 17:27:42;;;;;;;75.35;37.08;;;;;;;3.12;99.98;99610.84;1666698;85;25755;-71
2022/02/04 17:30:13;;;;;;;66.02;33.38;;;;;;;3.10;100.00;99613.79;1664596;85;25759;-71
2022/02/04 17:32:44;;;;;;;85.57;42.93;;;;;;;3.08;100.00;99607.92;1655861;85;27885;-72
2022/02/04 17:35:14;;;;;;;79.10;39.92;;;;;;;3.08;100.00;99599.09;1671483;85;25859;-71
2022/02/04 17:37:43;;;;;;;70.08;36.50;;;;;;;3.07;100.00;99606.31;1648052;85;25435;-72